Time;durP1;ratioP1;P1;durP2;ratioP2;P2;SDS_P1;SDS_P2;PMS_P1;PMS_P2;Temp;Humidity;BMP_temperature;BMP_pressure;BME280_temperature;BME280_humidity;BME280_pressure;Samples;Min_cycle;Max_cycle;Signal;HPM_P1;HPM_P2
2022/04/27 00:00:36;;;;;;;3.25;2.08;;;;;;;21.42;50.58;99067.28;4955219;28;20058;-91
2022/04/27 00:03:04;;;;;;;3.47;2.20;;;;;;;21.42;50.81;99067.28;4989385;28;20031;-91
2022/04/27 00:05:31;;;;;;;3.33;2.00;;;;;;;21.42;50.67;99064.66;4989753;28;20027;-90
2022/04/27 00:07:57;;;;;;;3.63;1.90;;;;;;;21.44;51.01;99068.03;5009487;28;20035;-90
2022/04/27 00:10:23;;;;;;;3.08;1.90;;;;;;;21.43;51.01;99071.66;4954931;28;20295;-89
2022/04/27 00:12:49;;;;;;;3.30;1.90;;;;;;;21.44;50.76;99076.00;4968461;28;20036;-91
2022/04/27 00:15:15;;;;;;;2.75;1.88;;;;;;;21.43;50.79;99076.94;4986524;28;20027;-90
2022/04/27 00:17:41;;;;;;;3.42;2.00;;;;;;;21.42;50.98;99077.91;4973770;28;20024;-92
2022/04/27 00:20:08;;;;;;;3.72;2.25;;;;;;;21.43;50.90;99076.09;4954598;29;20133;-91
2022/04/27 00:22:35;;;;;;;3.42;2.10;;;;;;;21.42;50.78;99079.72;4953161;29;20039;-91
2022/04/27 00:25:07;;;;;;;3.67;2.22;;;;;;;21.41;50.98;99073.53;4938147;29;20093;-92
2022/04/27 00:27:32;;;;;;;3.08;2.03;;;;;;;21.40;51.18;99077.16;4957447;29;20051;-91
2022/04/27 00:29:59;;;;;;;3.85;2.08;;;;;;;21.41;51.09;99078.00;4941992;28;20039;-90
2022/04/27 00:32:25;;;;;;;3.72;2.35;;;;;;;21.39;51.04;99080.75;4940227;28;20028;-91
2022/04/27 00:35:08;;;;;;;3.08;2.10;;;;;;;21.41;50.99;99078.00;4977156;28;20011;-89
2022/04/27 00:37:36;;;;;;;4.63;2.65;;;;;;;21.41;51.02;99078.84;4975471;28;20063;-89
2022/04/27 00:40:03;;;;;;;3.15;1.98;;;;;;;21.39;51.04;99083.41;4974737;28;20211;-89
2022/04/27 00:42:29;;;;;;;3.38;2.30;;;;;;;21.38;51.12;99084.38;4974955;28;20047;-89
2022/04/27 00:44:55;;;;;;;3.00;1.95;;;;;;;21.39;51.06;99087.88;4972041;28;20132;-89
2022/04/27 00:47:20;;;;;;;2.92;2.10;;;;;;;21.37;51.19;99093.31;4952681;29;20024;-90
2022/04/27 00:49:48;;;;;;;3.90;2.38;;;;;;;21.37;51.00;99095.97;4972310;28;20042;-90
2022/04/27 00:52:17;;;;;;;3.30;2.28;;;;;;;21.35;51.00;99089.88;4951351;29;20390;-89
2022/04/27 00:54:48;;;;;;;3.92;2.20;;;;;;;21.34;51.20;99085.53;4969827;28;20062;-91
2022/04/27 00:57:14;;;;;;;3.30;2.20;;;;;;;21.33;51.17;99087.34;4974964;29;20028;-91
2022/04/27 00:59:40;;;;;;;3.28;2.20;;;;;;;21.33;50.89;99075.88;4974453;28;20078;-90
2022/04/27 01:02:07;;;;;;;3.28;2.08;;;;;;;21.34;51.17;99077.56;4971838;29;20027;-89
2022/04/27 01:04:36;;;;;;;3.80;2.20;;;;;;;21.32;51.20;99063.56;4971929;28;20384;-89
2022/04/27 01:07:04;;;;;;;5.22;2.42;;;;;;;21.32;50.90;99066.22;4971589;28;20027;-91
2022/04/27 01:09:34;;;;;;;3.08;1.90;;;;;;;21.30;51.00;99070.75;4977677;28;20030;-89
2022/04/27 01:12:01;;;;;;;2.72;1.85;;;;;;;21.30;51.09;99068.13;4974444;29;20091;-89
2022/04/27 01:14:29;;;;;;;3.10;2.00;;;;;;;21.28;51.06;99057.63;4976875;28;20011;-91
2022/04/27 01:16:56;;;;;;;3.40;2.22;;;;;;;21.27;51.00;99055.94;4973906;28;20031;-90
2022/04/27 01:19:35;;;;;;;3.92;2.10;;;;;;;21.27;51.12;99060.38;4975044;28;20039;-91
2022/04/27 01:22:03;;;;;;;4.18;2.10;;;;;;;21.27;51.25;99065.69;4960230;29;20039;-90
2022/04/27 01:24:30;;;;;;;4.85;2.47;;;;;;;21.26;50.94;99054.22;4974078;28;20042;-90
2022/04/27 01:26:56;;;;;;;3.08;2.10;;;;;;;21.25;51.14;99052.50;4975396;28;20095;-91
2022/04/27 01:29:25;;;;;;;3.80;2.40;;;;;;;21.24;51.08;99050.81;4975119;28;20031;-91
2022/04/27 01:31:53;;;;;;;3.75;2.28;;;;;;;21.24;51.12;99044.66;4976102;29;20102;-90
2022/04/27 01:34:19;;;;;;;2.80;1.92;;;;;;;21.24;51.22;99052.63;4973464;28;20026;-90
2022/04/27 01:36:45;;;;;;;3.47;2.30;;;;;;;21.22;51.20;99055.41;4973711;28;20067;-90
2022/04/27 01:39:23;;;;;;;3.40;2.13;;;;;;;21.21;51.05;99052.84;4976178;28;20396;-91
2022/04/27 01:41:51;;;;;;;3.20;2.20;;;;;;;21.21;51.24;99052.84;4963683;29;20063;-91
2022/04/27 01:44:21;;;;;;;3.22;1.92;;;;;;;21.21;51.13;99055.50;4978601;29;20106;-90
2022/04/27 01:46:50;;;;;;;2.70;1.98;;;;;;;21.19;51.15;99052.94;4964129;29;20023;-90
2022/04/27 01:49:17;;;;;;;3.50;2.38;;;;;;;21.17;51.25;99049.56;4979046;28;20154;-89
2022/04/27 01:54:27;;;;;;;3.70;2.40;;;;;;;21.15;51.15;99060.25;4974243;28;20082;-89
2022/04/27 01:56:53;;;;;;;3.47;2.20;;;;;;;21.15;51.20;99062.06;4974744;28;20027;-89
2022/04/27 01:59:20;;;;;;;3.10;2.08;;;;;;;21.13;51.03;99062.19;4976893;28;20042;-90
2022/04/27 02:01:46;;;;;;;3.22;2.00;;;;;;;21.14;50.90;99066.53;4979239;28;20031;-89
2022/04/27 02:04:13;;;;;;;2.75;2.03;;;;;;;21.13;51.10;99059.53;4986839;28;20026;-90
2022/04/27 02:06:40;;;;;;;3.00;2.00;;;;;;;21.12;51.21;99075.53;4989953;28;20035;-91
2022/04/27 02:09:07;;;;;;;5.00;2.50;;;;;;;21.11;51.30;99077.34;4995356;28;20051;-90
2022/04/27 02:11:33;;;;;;;3.65;2.30;;;;;;;21.11;51.10;99082.63;4995621;28;20037;-91
2022/04/27 02:14:00;;;;;;;3.05;2.08;;;;;;;21.10;51.08;99080.94;4993886;28;20026;-90
2022/04/27 02:16:28;;;;;;;4.43;2.28;;;;;;;21.11;51.07;99084.47;4995105;28;20043;-90
2022/04/27 02:18:55;;;;;;;3.72;2.38;;;;;;;21.09;51.08;99087.22;4996219;28;20486;-90
2022/04/27 02:21:21;;;;;;;3.72;2.17;;;;;;;21.07;51.06;99086.47;4996640;28;20548;-92
2022/04/27 02:23:49;;;;;;;4.15;2.50;;;;;;;21.08;51.03;99082.88;4996841;28;20045;-91
2022/04/27 02:26:15;;;;;;;2.65;1.80;;;;;;;21.09;51.18;99094.31;4996979;28;20049;-91
2022/04/27 02:28:44;;;;;;;3.55;2.20;;;;;;;21.08;51.22;99093.47;4997803;28;20026;-91
2022/04/27 02:31:11;;;;;;;3.55;2.28;;;;;;;21.05;51.19;99093.66;4997406;28;20039;-91
2022/04/27 02:33:36;;;;;;;3.17;2.03;;;;;;;21.05;51.21;99088.34;4996778;28;20031;-90
2022/04/27 02:36:02;;;;;;;3.85;2.20;;;;;;;21.03;50.84;99091.09;4998334;28;20114;-91
2022/04/27 02:38:28;;;;;;;2.78;2.03;;;;;;;21.00;51.15;99095.78;4997563;28;20015;-91
2022/04/27 02:40:57;;;;;;;3.35;2.00;;;;;;;21.00;50.91;99087.81;4980740;28;20066;-91
2022/04/27 02:43:23;;;;;;;3.25;2.17;;;;;;;21.01;51.11;99097.50;4996277;28;20046;-91
2022/04/27 02:45:48;;;;;;;3.03;2.03;;;;;;;20.99;51.00;99086.13;4992338;28;20027;-92
2022/04/27 02:48:14;;;;;;;3.20;2.13;;;;;;;20.97;50.81;99085.38;4992613;28;20054;-90
2022/04/27 02:53:24;;;;;;;3.47;2.10;;;;;;;20.96;50.94;99094.31;4996285;28;20053;-91
2022/04/27 02:55:50;;;;;;;2.75;1.88;;;;;;;20.91;50.89;99097.25;4996176;28;20035;-92
2022/04/27 02:58:16;;;;;;;3.63;2.33;;;;;;;20.89;50.79;99094.72;4998792;28;20082;-92
2022/04/27 03:00:44;;;;;;;3.28;2.00;;;;;;;20.88;51.11;99092.97;4995498;28;20045;-91
2022/04/27 03:03:11;;;;;;;4.18;2.28;;;;;;;20.88;50.86;99092.97;4978238;28;20042;-92
2022/04/27 03:05:37;;;;;;;3.58;2.20;;;;;;;20.85;50.72;99082.59;5010410;28;20042;-89
2022/04/27 03:08:04;;;;;;;4.05;2.60;;;;;;;20.84;51.00;99085.31;4994944;28;20098;-90
2022/04/27 03:10:30;;;;;;;2.97;1.92;;;;;;;20.79;50.95;99082.97;4991664;28;20023;-91
2022/04/27 03:12:55;;;;;;;3.15;2.10;;;;;;;20.81;50.69;99086.38;4992937;28;20031;-91
2022/04/27 03:15:22;;;;;;;4.55;2.35;;;;;;;20.80;50.84;99084.66;4992957;28;20079;-89
2022/04/27 03:18:17;;;;;;;3.78;2.05;;;;;;;20.78;50.98;99070.69;4993591;28;20041;-91
2022/04/27 03:20:35;;;;;;;3.45;2.10;;;;;;;20.72;50.65;99077.22;4993818;28;20027;-92
2022/04/27 03:23:01;;;;;;;4.05;2.20;;;;;;;20.70;50.85;99072.97;4993733;28;20060;-91
2022/04/27 03:25:27;;;;;;;3.60;2.17;;;;;;;20.70;50.90;99072.97;4993527;28;20019;-91
2022/04/27 03:27:52;;;;;;;4.40;2.30;;;;;;;20.68;50.62;99069.56;4991793;28;20380;-91
2022/04/27 03:30:19;;;;;;;3.35;2.20;;;;;;;20.65;50.91;99076.78;4991722;28;20035;-93
2022/04/27 03:32:45;;;;;;;3.40;2.25;;;;;;;20.68;50.88;99074.88;4978926;28;20032;-91
2022/04/27 03:35:11;;;;;;;4.00;2.33;;;;;;;20.62;50.88;99076.97;4969956;29;20063;-91
2022/04/27 03:37:37;;;;;;;4.63;2.35;;;;;;;20.61;51.07;99075.28;4970674;29;20055;-91
2022/04/27 03:56:23;;;;;;;3.60;2.17;;;;;;;20.51;50.62;99082.13;4966235;28;20098;-91
2022/04/27 03:58:49;;;;;;;3.40;2.20;;;;;;;20.47;50.96;99077.97;5013452;28;20030;-92
2022/04/27 04:01:14;;;;;;;3.08;2.10;;;;;;;20.48;50.77;99085.81;4997235;28;20022;-91
2022/04/27 04:03:40;;;;;;;3.10;2.08;;;;;;;20.50;50.86;99086.56;5013695;28;20018;-90
2022/04/27 04:06:05;;;;;;;3.53;2.60;;;;;;;20.47;50.83;99088.56;4996545;28;20022;-92
2022/04/27 04:08:31;;;;;;;3.42;2.38;;;;;;;20.48;50.58;99085.00;4997522;28;20061;-91
2022/04/27 04:10:57;;;;;;;2.80;2.00;;;;;;;20.49;50.62;99086.69;4995335;28;20049;-92
2022/04/27 04:13:22;;;;;;;3.33;2.13;;;;;;;20.45;50.80;99085.19;4994384;28;20124;-91
2022/04/27 04:15:49;;;;;;;3.97;2.20;;;;;;;20.44;50.80;99083.50;4992422;28;20027;-91
2022/04/27 04:18:15;;;;;;;3.22;2.17;;;;;;;20.45;50.80;99077.22;4994258;28;20022;-91
2022/04/27 04:20:41;;;;;;;4.00;2.67;;;;;;;20.43;50.80;99073.84;4993672;28;20045;-89
2022/04/27 04:23:06;;;;;;;3.20;2.08;;;;;;;20.43;50.72;99079.13;4994523;28;20030;-91
2022/04/27 04:28:31;;;;;;;2.95;1.98;;;;;;;20.43;50.67;99084.44;4995428;28;20097;-90
2022/04/27 04:31:02;;;;;;;3.42;2.25;;;;;;;20.42;50.82;99083.56;4994162;28;20030;-90
2022/04/27 04:33:28;;;;;;;3.58;2.40;;;;;;;20.41;50.60;99081.03;4995462;28;20026;-91
2022/04/27 04:35:55;;;;;;;3.05;1.92;;;;;;;20.39;50.45;99086.44;4996127;28;20337;-92
2022/04/27 04:38:21;;;;;;;3.65;2.33;;;;;;;20.36;50.72;99094.56;4995404;28;20036;-91
2022/04/27 04:40:47;;;;;;;3.22;2.40;;;;;;;20.37;50.83;99099.78;4995915;28;20030;-92
2022/04/27 04:43:14;;;;;;;3.35;2.22;;;;;;;20.37;50.67;99099.78;4996595;28;20031;-91
2022/04/27 04:45:44;;;;;;;4.10;2.58;;;;;;;20.35;50.77;99096.34;4996961;28;20085;-92
2022/04/27 04:48:14;;;;;;;2.75;2.17;;;;;;;20.34;50.64;99099.13;5014466;28;20026;-90
2022/04/27 04:50:39;;;;;;;4.70;2.50;;;;;;;20.32;50.28;99096.56;4996911;28;20399;-92
2022/04/27 04:53:06;;;;;;;2.88;2.00;;;;;;;20.33;50.53;99100.91;4981709;28;20046;-90
2022/04/27 04:55:32;;;;;;;3.40;2.30;;;;;;;20.32;50.40;99101.88;4999278;28;20025;-91
2022/04/27 04:57:57;;;;;;;3.95;1.90;;;;;;;20.30;50.61;99098.47;4996875;28;20050;-89
2022/04/27 05:00:24;;;;;;;4.00;2.40;;;;;;;20.28;50.64;99099.53;4997632;28;20042;-91
2022/04/27 05:02:49;;;;;;;4.55;2.30;;;;;;;20.27;50.25;99106.63;4997706;28;20026;-91
2022/04/27 05:05:15;;;;;;;3.92;2.30;;;;;;;20.26;50.58;99108.41;4999459;28;20067;-91
2022/04/27 05:07:42;;;;;;;2.95;2.03;;;;;;;20.24;50.61;99107.66;5000237;28;20074;-92
2022/04/27 05:10:10;;;;;;;3.33;2.17;;;;;;;20.25;50.16;99105.88;5001302;28;20018;-92
2022/04/27 05:12:38;;;;;;;2.88;2.10;;;;;;;20.22;50.15;99111.34;5000904;28;20022;-92
2022/04/27 05:15:04;;;;;;;3.55;2.35;;;;;;;20.21;50.23;99120.25;5001735;28;20022;-92
2022/04/27 05:17:30;;;;;;;4.03;2.28;;;;;;;20.21;50.28;99125.53;5001561;28;20039;-93
2022/04/27 05:19:56;;;;;;;3.60;2.20;;;;;;;20.18;50.34;99125.72;5002163;28;20031;-93
2022/04/27 05:22:22;;;;;;;3.60;2.20;;;;;;;20.19;50.44;99132.75;5002525;28;20087;-92
2022/04/27 05:24:48;;;;;;;3.33;2.22;;;;;;;20.22;50.17;99137.84;5001994;28;20026;-91
2022/04/27 05:27:14;;;;;;;3.15;2.13;;;;;;;20.22;50.46;99143.13;5000841;28;20038;-90
2022/04/27 05:32:27;;;;;;;3.67;2.38;;;;;;;20.20;50.34;99139.75;4963163;29;20054;-90
2022/04/27 05:34:53;;;;;;;3.88;2.42;;;;;;;20.21;50.58;99152.91;4978778;28;20043;-90
2022/04/27 05:37:20;;;;;;;3.53;2.25;;;;;;;20.23;50.34;99144.84;4960982;29;20031;-90
2022/04/27 05:39:47;;;;;;;3.58;2.30;;;;;;;20.22;50.65;99151.09;4963879;28;20124;-90
2022/04/27 05:42:16;;;;;;;3.97;2.60;;;;;;;20.24;50.59;99149.22;4974592;28;20023;-90
2022/04/27 05:44:41;;;;;;;3.28;2.30;;;;;;;20.24;50.43;99149.22;4956547;29;20036;-91
2022/04/27 05:47:13;;;;;;;3.45;2.20;;;;;;;20.22;50.29;99143.13;4957895;29;20107;-91
2022/04/27 05:49:41;;;;;;;3.58;2.20;;;;;;;20.23;50.48;99155.44;4958399;29;20035;-90
2022/04/27 05:52:08;;;;;;;4.13;2.22;;;;;;;20.23;50.61;99160.72;4968595;28;20067;-90
2022/04/27 05:54:38;;;;;;;4.03;2.30;;;;;;;20.24;50.45;99151.88;4968847;28;20035;-92
2022/04/27 05:57:04;;;;;;;3.20;2.20;;;;;;;20.24;50.44;99151.88;4975991;28;20035;-91
2022/04/27 05:59:34;;;;;;;4.25;2.55;;;;;;;20.22;50.45;99153.75;4958836;29;20027;-92
2022/04/27 06:02:01;;;;;;;4.28;2.38;;;;;;;20.21;50.19;99154.69;4944032;29;20035;-90
2022/04/27 06:04:27;;;;;;;3.45;2.25;;;;;;;20.20;50.07;99155.63;4958178;29;20055;-92
2022/04/27 06:06:54;;;;;;;3.50;2.53;;;;;;;20.19;50.37;99164.53;4961312;29;20461;-89
2022/04/27 06:09:20;;;;;;;3.60;2.45;;;;;;;20.19;50.07;99169.84;4959373;29;20043;-89
2022/04/27 06:11:48;;;;;;;4.03;2.28;;;;;;;20.22;50.27;99175.78;4979382;28;20038;-92
2022/04/27 06:14:14;;;;;;;3.47;2.50;;;;;;;20.19;50.16;99181.28;4985430;28;20054;-92
2022/04/27 06:16:40;;;;;;;3.53;2.42;;;;;;;20.19;50.34;99180.44;4973005;28;20016;-90
2022/04/27 06:19:06;;;;;;;3.33;2.08;;;;;;;20.20;50.27;99190.09;4973204;28;20032;-91
2022/04/27 06:21:32;;;;;;;4.20;2.53;;;;;;;20.17;50.32;99177.00;4964898;29;20036;-91
2022/04/27 06:24:04;;;;;;;3.78;2.53;;;;;;;20.17;50.11;99184.97;4982130;28;20098;-92
2022/04/27 06:26:33;;;;;;;4.85;2.45;;;;;;;20.17;50.19;99187.59;4969171;29;20027;-91
2022/04/27 06:29:01;;;;;;;3.40;2.35;;;;;;;20.17;50.35;99198.19;4973652;29;20051;-89
2022/04/27 06:31:30;;;;;;;3.17;2.20;;;;;;;20.18;50.25;99194.59;4960000;29;20024;-90
2022/04/27 06:33:57;;;;;;;3.70;2.50;;;;;;;20.18;50.16;99195.47;4944643;29;20027;-91
2022/04/27 06:36:23;;;;;;;3.40;2.33;;;;;;;20.19;50.21;99191.88;4943688;29;20424;-89
2022/04/27 06:38:50;;;;;;;3.22;2.40;;;;;;;20.20;49.93;99192.72;4960586;29;20027;-89
2022/04/27 06:41:16;;;;;;;4.50;3.20;;;;;;;20.22;50.17;99196.13;4990278;28;20035;-90
2022/04/27 06:43:42;;;;;;;3.38;2.33;;;;;;;20.20;49.99;99203.31;4958555;29;20034;-91
2022/04/27 06:46:08;;;;;;;3.38;2.20;;;;;;;20.21;50.14;99200.59;4967922;29;20035;-91
2022/04/27 06:48:33;;;;;;;3.47;2.40;;;;;;;20.24;49.99;99204.84;4972794;28;20027;-90
2022/04/27 06:51:00;;;;;;;3.33;2.30;;;;;;;20.22;50.42;99202.28;4973279;28;20397;-92
2022/04/27 06:53:25;;;;;;;3.83;2.50;;;;;;;20.21;50.08;99202.38;4970224;28;20027;-91
2022/04/27 06:55:51;;;;;;;4.18;2.70;;;;;;;20.23;49.87;99203.13;4957396;29;20006;-91
2022/04/27 06:58:17;;;;;;;4.45;2.35;;;;;;;20.24;50.07;99203.03;4975548;28;20040;-90
2022/04/27 07:00:44;;;;;;;4.57;2.83;;;;;;;20.26;49.69;99195.00;4978053;28;20052;-91
2022/04/27 07:03:10;;;;;;;3.33;2.38;;;;;;;20.26;49.88;99197.66;4953687;29;20028;-90
2022/04/27 07:05:36;;;;;;;3.20;2.55;;;;;;;20.29;49.94;99202.75;4949537;29;20094;-90
2022/04/27 07:08:04;;;;;;;3.72;2.55;;;;;;;20.31;49.99;99211.47;4967521;28;20019;-90
2022/04/27 07:10:36;;;;;;;4.03;3.05;;;;;;;20.31;49.94;99206.16;4970936;28;20030;-90
2022/04/27 07:13:05;;;;;;;3.50;2.25;;;;;;;20.36;49.83;99214.69;4943761;29;20031;-90
2022/04/27 07:15:32;;;;;;;4.75;2.80;;;;;;;20.37;49.79;99200.47;4954791;29;20095;-90
2022/04/27 07:18:04;;;;;;;3.72;2.70;;;;;;;20.37;49.94;99205.78;4954405;29;20036;-91
2022/04/27 07:20:30;;;;;;;3.92;2.67;;;;;;;20.35;49.52;99202.34;4965838;29;20046;-90
2022/04/27 07:22:56;;;;;;;4.03;2.90;;;;;;;20.34;49.57;99200.66;4972900;28;20095;-90
2022/04/27 07:25:23;;;;;;;4.40;2.90;;;;;;;20.34;49.72;99207.78;4974290;28;20538;-91
2022/04/27 07:27:50;;;;;;;5.05;2.80;;;;;;;20.33;49.47;99209.56;4970886;28;20059;-92
2022/04/27 07:30:16;;;;;;;3.75;2.58;;;;;;;20.33;49.34;99209.56;4964186;29;20024;-91
2022/04/27 07:32:47;;;;;;;3.83;2.53;;;;;;;20.35;49.39;99205.00;4968978;28;20023;-91
2022/04/27 07:35:13;;;;;;;3.88;2.63;;;;;;;20.36;49.46;99219.13;4973152;28;20024;-89
2022/04/27 07:37:39;;;;;;;4.35;2.97;;;;;;;20.40;49.52;99210.03;4947239;29;20031;-90
2022/04/27 07:40:09;;;;;;;4.95;3.15;;;;;;;20.41;49.62;99210.88;4954672;29;20042;-89
2022/04/27 07:42:35;;;;;;;3.75;2.50;;;;;;;20.43;49.48;99219.59;4967360;29;20020;-90
2022/04/27 07:45:01;;;;;;;3.97;2.50;;;;;;;20.45;49.34;99217.69;4961813;28;20068;-90
2022/04/27 07:47:27;;;;;;;5.18;2.72;;;;;;;20.43;49.68;99222.25;4967699;28;20055;-92
2022/04/27 07:53:39;;;;;;;4.70;2.67;;;;;;;20.48;49.48;99218.34;4974360;28;20043;-92
2022/04/27 07:56:05;;;;;;;4.25;2.75;;;;;;;20.49;49.57;99221.88;4960498;28;20064;-89
2022/04/27 07:58:32;;;;;;;3.67;2.55;;;;;;;20.46;49.36;99236.16;4956061;28;20100;-92
2022/04/27 08:01:00;;;;;;;4.22;2.72;;;;;;;20.46;49.52;99224.69;4972701;28;20028;-92
2022/04/27 08:03:27;;;;;;;3.60;2.50;;;;;;;20.48;49.56;99228.13;4943783;28;20011;-90
2022/04/27 08:06:04;;;;;;;4.15;2.47;;;;;;;20.49;49.35;99240.41;4951570;29;20030;-92
2022/04/27 08:08:35;;;;;;;4.07;2.60;;;;;;;20.49;49.45;99232.47;4972696;28;20095;-91
2022/04/27 08:11:05;;;;;;;4.13;2.63;;;;;;;20.50;49.64;99231.50;4971498;29;20031;-91
2022/04/27 08:13:32;;;;;;;4.35;2.67;;;;;;;20.50;49.64;99228.84;4941938;29;20445;-89
2022/04/27 08:15:59;;;;;;;4.53;2.90;;;;;;;20.50;49.54;99237.66;4913979;29;20098;-91
2022/04/27 08:18:55;;;;;;;5.45;3.00;;;;;;;20.52;49.35;99250.81;4980014;28;20087;-90
2022/04/27 08:21:38;;;;;;;5.28;2.78;;;;;;;20.54;49.28;99248.94;4953995;29;20095;-93
2022/04/27 08:24:11;;;;;;;4.78;2.70;;;;;;;20.54;49.39;99248.94;4954792;29;20044;-90
2022/04/27 08:26:38;;;;;;;7.00;2.90;;;;;;;20.55;49.31;99257.72;4953002;28;20027;-89
2022/04/27 08:29:08;;;;;;;6.05;3.03;;;;;;;20.57;49.42;99259.31;4951594;29;20035;-91
2022/04/27 08:31:42;;;;;;;4.70;2.72;;;;;;;20.58;49.35;99261.03;4954738;29;20016;-91
2022/04/27 08:34:11;;;;;;;4.57;2.92;;;;;;;20.59;49.40;99267.19;5024076;23;20122;-92
2022/04/27 08:36:37;;;;;;;5.53;3.13;;;;;;;20.60;49.09;99269.75;4972430;29;20031;-93
2022/04/27 08:39:04;;;;;;;7.38;2.90;;;;;;;20.62;49.21;99273.16;4974271;29;20034;-92
2022/04/27 08:41:31;;;;;;;5.57;3.08;;;;;;;20.64;49.38;99275.72;4974497;29;20461;-92
2022/04/27 08:43:57;;;;;;;5.40;2.97;;;;;;;20.66;49.17;99265.84;4967080;29;20050;-93
2022/04/27 08:46:24;;;;;;;5.20;3.00;;;;;;;20.66;49.00;99264.06;4966727;29;20020;-93
2022/04/27 08:48:51;;;;;;;4.32;2.90;;;;;;;20.66;49.13;99272.03;4968556;29;20027;-92
2022/04/27 08:51:18;;;;;;;4.63;3.22;;;;;;;20.68;49.12;99269.25;4974466;28;20023;-94
2022/04/27 08:53:45;;;;;;;8.00;3.55;;;;;;;20.68;49.02;99269.25;4967203;29;20047;-93
2022/04/27 08:56:17;;;;;;;6.45;3.17;;;;;;;20.70;48.94;99274.47;4970453;28;20016;-91
2022/04/27 08:58:43;;;;;;;4.13;2.95;;;;;;;20.72;48.90;99277.88;4991177;28;20036;-92
2022/04/27 09:01:12;;;;;;;4.28;2.95;;;;;;;20.71;49.02;99281.47;4973895;29;20023;-91
2022/04/27 09:03:39;;;;;;;5.05;3.10;;;;;;;20.73;48.78;99287.53;4943168;29;20039;-89
2022/04/27 09:06:12;;;;;;;6.70;3.15;;;;;;;20.75;48.99;99293.59;4974409;29;20050;-90
2022/04/27 09:08:41;;;;;;;5.63;3.10;;;;;;;20.75;48.75;99289.16;4975650;29;20027;-91
2022/04/27 09:11:34;;;;;;;3.85;2.88;;;;;;;20.76;48.88;99289.97;4956595;29;20024;-89
2022/04/27 09:22:20;;;;;;;6.28;3.25;;;;;;;20.81;48.70;99297.66;5514950;23;20264;-91
2022/04/27 09:24:51;;;;;;;4.72;2.72;;;;;;;20.83;48.60;99298.41;4986483;28;20118;-90
2022/04/27 09:27:24;;;;;;;5.07;3.25;;;;;;;20.83;48.69;99301.94;4988201;28;20030;-91
2022/04/27 09:30:10;;;;;;;5.05;2.85;;;;;;;20.85;48.81;99299.19;4976783;28;20023;-91
2022/04/27 09:32:52;;;;;;;4.60;2.72;;;;;;;20.85;48.61;99294.75;4976425;29;20070;-93
2022/04/27 09:39:10;;;;;;;5.43;2.95;;;;;;;20.88;48.43;99297.19;4990835;28;20054;-91
2022/04/27 09:41:45;;;;;;;4.97;2.60;;;;;;;20.89;48.51;99298.91;4999123;28;20091;-88
2022/04/27 09:44:31;;;;;;;5.25;3.13;;;;;;;20.91;48.57;99297.00;5001298;28;20042;-88
2022/04/27 09:46:58;;;;;;;4.90;3.22;;;;;;;20.91;48.24;99310.28;5000524;28;20027;-88
2022/04/27 09:49:24;;;;;;;5.72;2.70;;;;;;;20.93;48.29;99311.03;4996310;28;20038;-87
2022/04/27 09:51:54;;;;;;;4.90;2.83;;;;;;;20.93;48.36;99308.38;4995225;28;20058;-87
2022/04/27 09:54:29;;;;;;;5.32;2.85;;;;;;;20.95;48.48;99326.84;4992623;28;20094;-89
2022/04/27 09:57:00;;;;;;;5.45;3.10;;;;;;;20.97;48.39;99318.78;4993541;28;20058;-91
2022/04/27 09:59:31;;;;;;;5.70;2.83;;;;;;;20.98;48.33;99312.53;4993370;28;20494;-93
2022/04/27 10:02:00;;;;;;;4.80;2.83;;;;;;;20.99;48.77;99322.19;4993954;28;20038;-90
2022/04/27 10:04:28;;;;;;;7.82;3.67;;;;;;;21.01;48.69;99325.63;4992033;28;20027;-90
2022/04/27 10:07:00;;;;;;;7.78;3.42;;;;;;;21.02;48.41;99327.31;4991081;28;20054;-91
2022/04/27 10:09:30;;;;;;;5.15;3.17;;;;;;;21.03;48.43;99329.03;4995355;28;20383;-92
2022/04/27 10:12:00;;;;;;;5.97;3.20;;;;;;;21.04;48.68;99330.72;4993341;28;20114;-91
2022/04/27 10:14:28;;;;;;;7.55;3.20;;;;;;;21.06;48.92;99323.50;4986134;28;20026;-93
2022/04/27 10:43:31;;;;;;;7.07;2.70;;;;;;;21.16;49.02;99318.47;5019293;28;20044;-96
2022/04/27 10:53:25;;;;;;;6.88;3.28;;;;;;;21.18;48.80;99303.31;4998273;28;20166;-94
2022/04/27 10:56:46;;;;;;;5.03;2.95;;;;;;;21.19;48.68;99300.56;4997753;28;20038;-94
2022/04/27 11:16:53;;;;;;;8.38;3.22;;;;;;;21.28;48.72;99284.97;5860334;23;20061;-93
2022/04/27 11:22:13;;;;;;;5.50;2.67;;;;;;;21.31;48.66;99279.50;5496081;23;20047;-92
2022/04/27 11:27:37;;;;;;;5.20;3.08;;;;;;;21.31;48.91;99280.31;5082494;23;20075;-94
2022/04/27 11:30:08;;;;;;;6.40;3.10;;;;;;;21.32;48.64;99281.19;5032750;28;20033;-93
2022/04/27 11:32:43;;;;;;;6.00;2.78;;;;;;;21.33;48.76;99274.91;5034068;28;20495;-95
2022/04/27 11:35:13;;;;;;;5.38;3.03;;;;;;;21.33;48.83;99267.81;5029503;28;20041;-96
2022/04/27 11:37:39;;;;;;;8.70;2.90;;;;;;;21.33;48.50;99267.81;5032284;28;20077;-93
2022/04/27 11:40:17;;;;;;;4.68;2.78;;;;;;;21.35;48.74;99269.53;5019177;28;20018;-89
2022/04/27 11:42:52;;;;;;;5.93;2.85;;;;;;;21.35;48.76;99264.22;5033170;28;20084;-92
2022/04/27 11:53:12;;;;;;;4.25;2.47;;;;;;;21.38;48.67;99262.19;5459549;23;20081;-92
2022/04/27 11:55:39;;;;;;;5.10;2.80;;;;;;;21.40;48.68;99265.59;4995366;28;20031;-92
2022/04/27 11:58:07;;;;;;;4.30;2.58;;;;;;;21.39;48.64;99261.25;4980762;28;20022;-94
2022/04/27 12:00:34;;;;;;;4.53;2.70;;;;;;;21.40;48.57;99252.31;4997439;28;20046;-93
2022/04/27 12:03:44;;;;;;;5.10;3.00;;;;;;;21.42;48.47;99261.06;4980900;28;20019;-92
2022/04/27 12:06:35;;;;;;;4.53;2.55;;;;;;;21.43;48.59;99257.44;4978337;28;20019;-91
2022/04/27 12:12:42;;;;;;;5.47;2.85;;;;;;;21.44;48.54;99259.16;5627223;23;20032;-90
2022/04/27 12:15:14;;;;;;;5.50;2.97;;;;;;;21.46;48.43;99254.56;4999937;28;20046;-89
2022/04/27 12:44:45;;;;;;;8.65;3.00;;;;;;;21.59;48.74;99240.47;4959804;29;20109;-92
2022/04/27 12:47:15;;;;;;;4.75;2.85;;;;;;;21.60;49.05;99236.91;4920933;29;20043;-93
2022/04/27 12:49:50;;;;;;;6.32;3.17;;;;;;;21.62;48.78;99240.28;4943914;29;20012;-91
2022/04/27 12:52:30;;;;;;;6.57;2.83;;;;;;;21.63;48.89;99238.47;4957507;28;20041;-91
2022/04/27 12:55:11;;;;;;;7.40;2.83;;;;;;;21.65;48.76;99234.75;5000921;28;20046;-90
2022/04/27 12:57:50;;;;;;;6.10;2.72;;;;;;;21.66;48.68;99233.81;4999599;28;20065;-90
2022/04/27 13:00:21;;;;;;;7.15;3.22;;;;;;;21.68;48.79;99239.88;5017018;28;20015;-93
2022/04/27 13:02:52;;;;;;;5.45;2.78;;;;;;;21.67;48.62;99224.91;4986051;28;20022;-90
2022/04/27 13:05:50;;;;;;;8.55;3.33;;;;;;;21.70;48.61;99232.66;5018877;28;20026;-92
2022/04/27 13:15:19;;;;;;;5.90;2.90;;;;;;;21.74;48.82;99222.69;4960382;28;20628;-92
2022/04/27 13:17:46;;;;;;;5.97;3.13;;;;;;;21.73;48.81;99221.84;4978263;28;20438;-90
2022/04/27 13:20:13;;;;;;;7.30;2.90;;;;;;;21.73;48.67;99221.84;4996905;28;20026;-88
2022/04/27 13:22:39;;;;;;;4.88;2.92;;;;;;;21.76;48.73;99211.97;4970963;28;20508;-89
2022/04/27 13:25:05;;;;;;;7.22;3.50;;;;;;;21.76;48.83;99209.31;4990564;28;20062;-89
2022/04/27 13:27:32;;;;;;;4.30;2.65;;;;;;;21.77;48.69;99211.00;4987642;28;20026;-88
2022/04/27 13:29:57;;;;;;;7.55;3.17;;;;;;;21.78;48.76;99207.41;4970402;28;20112;-91
2022/04/27 13:32:24;;;;;;;6.22;2.95;;;;;;;21.78;48.74;99204.75;4971508;28;20078;-90
2022/04/27 13:34:49;;;;;;;6.03;2.50;;;;;;;21.80;48.80;99210.81;4966409;28;20050;-89
2022/04/27 13:37:15;;;;;;;6.25;2.83;;;;;;;21.80;48.66;99205.50;4981072;28;20038;-87
2022/04/27 13:39:41;;;;;;;4.32;2.83;;;;;;;21.81;48.63;99201.88;4964774;28;20034;-89
2022/04/27 13:42:06;;;;;;;5.97;2.85;;;;;;;21.81;48.63;99199.22;4980888;28;20035;-89
2022/04/27 13:44:33;;;;;;;5.38;2.58;;;;;;;21.81;48.61;99193.91;4965271;28;20049;-89
2022/04/27 13:46:58;;;;;;;5.07;2.70;;;;;;;21.84;48.60;99196.38;4974789;28;20030;-89
2022/04/27 13:49:24;;;;;;;5.22;2.92;;;;;;;21.83;48.70;99194.66;4966335;28;20075;-89
2022/04/27 13:51:50;;;;;;;5.28;3.13;;;;;;;21.85;48.72;99198.06;4950199;28;20038;-90
2022/04/27 13:54:16;;;;;;;4.20;2.50;;;;;;;21.85;48.63;99192.75;4984286;28;20026;-88
2022/04/27 13:56:42;;;;;;;4.70;2.63;;;;;;;21.85;48.69;99193.59;4977445;28;20026;-90
2022/04/27 13:59:10;;;;;;;5.20;2.85;;;;;;;21.87;48.76;99190.84;4981653;28;20035;-89
2022/04/27 14:01:36;;;;;;;4.80;2.35;;;;;;;21.88;48.84;99197.84;4966312;28;20030;-89
2022/04/27 14:04:02;;;;;;;4.25;2.67;;;;;;;21.89;48.81;99188.91;4966540;28;20035;-91
2022/04/27 14:06:27;;;;;;;5.47;2.80;;;;;;;21.90;48.76;99195.09;4971672;28;20502;-90